Time;durP1;ratioP1;P1;durP2;ratioP2;P2;SDS_P1;SDS_P2;PMS_P1;PMS_P2;Temp;Humidity;BMP_temperature;BMP_pressure;BME280_temperature;BME280_humidity;BME280_pressure;Samples;Min_cycle;Max_cycle;Signal;HPM_P1;HPM_P2
2021/07/21 00:00:50;;;;;;;11.53;10.33;;;19.20;86.20;;;;;;6193217;23;20440;-90
2021/07/21 00:03:19;;;;;;;10.60;9.43;;;19.30;86.70;;;;;;6201257;23;20422;-90
2021/07/21 00:05:48;;;;;;;11.63;9.60;;;19.30;87.60;;;;;;6194287;23;20473;-90
2021/07/21 00:08:16;;;;;;;12.07;10.50;;;19.30;88.30;;;;;;6194572;23;20441;-90
2021/07/21 00:10:49;;;;;;;10.63;9.53;;;19.20;88.50;;;;;;6195635;23;20410;-90
2021/07/21 00:13:28;;;;;;;12.67;10.53;;;19.10;88.20;;;;;;6213747;23;20414;-91
2021/07/21 00:16:03;;;;;;;12.97;11.50;;;19.10;88.20;;;;;;6194075;23;20417;-90
2021/07/21 00:18:34;;;;;;;11.80;10.43;;;19.10;89.30;;;;;;6193107;23;20413;-90
2021/07/21 00:21:01;;;;;;;13.07;10.40;;;19.10;88.70;;;;;;6193624;23;20436;-90
2021/07/21 00:23:30;;;;;;;11.87;10.50;;;19.00;89.40;;;;;;6193465;23;20929;-90
2021/07/21 00:25:58;;;;;;;13.00;9.60;;;18.90;90.10;;;;;;6193605;23;20441;-90
2021/07/21 00:28:26;;;;;;;17.50;11.60;;;19.00;90.60;;;;;;6194390;23;20522;-90
2021/07/21 00:31:15;;;;;;;13.27;10.17;;;18.90;90.70;;;;;;6209896;23;20460;-90
2021/07/21 00:34:34;;;;;;;11.93;10.47;;;18.90;90.70;;;;;;6212994;23;20421;-90
2021/07/21 00:37:02;;;;;;;12.77;10.70;;;18.90;90.80;;;;;;6203558;23;20424;-89
2021/07/21 00:39:33;;;;;;;11.90;10.70;;;18.80;90.50;;;;;;6208667;23;20433;-89
2021/07/21 00:42:00;;;;;;;12.07;10.00;;;18.80;90.60;;;;;;6209660;23;20371;-91
2021/07/21 00:44:34;;;;;;;11.90;9.67;;;18.80;90.50;;;;;;6208970;23;20410;-90
2021/07/21 00:47:04;;;;;;;11.87;9.33;;;18.80;90.50;;;;;;6206147;23;20425;-93
2021/07/21 00:49:31;;;;;;;11.00;9.90;;;18.80;90.40;;;;;;6200596;23;20417;-90
2021/07/21 00:52:18;;;;;;;11.80;10.50;;;18.80;90.40;;;;;;6197282;23;20419;-90
2021/07/21 00:54:48;;;;;;;12.00;10.10;;;18.80;90.80;;;;;;6193275;23;20449;-90
2021/07/21 00:57:17;;;;;;;11.63;10.13;;;18.80;90.70;;;;;;6191518;23;20493;-91
2021/07/21 00:59:44;;;;;;;12.20;10.90;;;18.70;90.60;;;;;;6197109;23;20780;-92
2021/07/21 01:02:17;;;;;;;11.43;10.10;;;18.70;90.80;;;;;;6190667;23;20469;-90
2021/07/21 01:04:48;;;;;;;10.67;9.50;;;18.70;91.00;;;;;;6191468;23;20847;-90
2021/07/21 01:07:15;;;;;;;11.57;9.77;;;18.70;90.80;;;;;;6194496;23;20465;-89
2021/07/21 01:09:48;;;;;;;15.07;10.27;;;18.60;91.10;;;;;;6207789;23;20437;-91
2021/07/21 01:12:29;;;;;;;10.73;9.63;;;18.50;90.90;;;;;;6207357;23;20477;-90
2021/07/21 01:15:08;;;;;;;11.50;9.40;;;18.50;91.00;;;;;;6194488;23;20400;-90
2021/07/21 01:17:39;;;;;;;12.77;10.57;;;18.50;91.00;;;;;;6186736;23;20403;-89
2021/07/21 01:20:45;;;;;;;11.60;9.93;;;18.60;91.30;;;;;;6188953;23;20406;-90
2021/07/21 01:23:19;;;;;;;11.77;9.90;;;18.50;91.40;;;;;;6188448;23;20413;-90
2021/07/21 01:25:57;;;;;;;13.20;9.80;;;18.50;91.70;;;;;;6189626;23;20493;-91
2021/07/21 01:28:29;;;;;;;11.17;9.70;;;18.40;91.70;;;;;;6206765;23;20422;-91
2021/07/21 01:30:58;;;;;;;12.30;9.17;;;18.30;92.10;;;;;;6207245;23;20437;-85
2021/07/21 01:33:26;;;;;;;12.37;9.30;;;18.30;92.50;;;;;;6211570;23;20416;-86
2021/07/21 01:35:56;;;;;;;10.60;9.33;;;18.30;92.80;;;;;;6204933;23;20424;-85
2021/07/21 01:38:29;;;;;;;12.07;10.13;;;18.20;93.00;;;;;;6187571;23;20410;-85
2021/07/21 01:40:58;;;;;;;12.33;11.17;;;18.20;93.20;;;;;;6188034;23;20423;-85
2021/07/21 01:43:31;;;;;;;11.80;10.70;;;18.20;93.90;;;;;;6187219;23;20383;-86
2021/07/21 01:46:00;;;;;;;13.03;11.07;;;18.10;94.10;;;;;;6186089;23;20939;-86
2021/07/21 01:48:30;;;;;;;12.33;9.87;;;18.10;94.40;;;;;;6185170;23;20442;-86
2021/07/21 01:51:02;;;;;;;12.33;10.80;;;18.00;94.50;;;;;;6198193;23;20426;-86
2021/07/21 01:53:33;;;;;;;12.00;10.00;;;18.10;94.60;;;;;;6186583;23;20433;-85
2021/07/21 01:56:00;;;;;;;11.90;9.97;;;18.00;94.70;;;;;;6185750;23;20398;-85
2021/07/21 01:58:30;;;;;;;14.43;11.87;;;17.90;95.10;;;;;;6186529;23;20426;-85
2021/07/21 02:00:57;;;;;;;13.57;11.27;;;17.90;95.30;;;;;;6185239;23;20426;-85
2021/07/21 02:03:24;;;;;;;12.20;10.63;;;18.00;95.80;;;;;;6185871;23;20853;-85
2021/07/21 02:05:55;;;;;;;15.03;11.40;;;17.90;95.90;;;;;;6186087;23;20414;-85
2021/07/21 02:08:23;;;;;;;12.70;9.87;;;17.90;96.00;;;;;;6185291;23;20432;-86
2021/07/21 02:10:50;;;;;;;12.50;11.27;;;17.90;96.10;;;;;;6186308;23;20440;-85
2021/07/21 02:13:17;;;;;;;12.70;11.00;;;17.80;96.40;;;;;;6192175;23;20401;-86
2021/07/21 02:15:47;;;;;;;13.43;11.43;;;17.80;96.50;;;;;;6192003;23;20397;-85
2021/07/21 02:18:17;;;;;;;14.50;12.57;;;17.80;96.60;;;;;;6185297;23;20787;-85
2021/07/21 02:20:45;;;;;;;14.13;11.43;;;17.70;96.70;;;;;;6184521;23;20425;-85
2021/07/21 02:23:12;;;;;;;15.93;12.77;;;17.60;96.90;;;;;;6184780;23;20410;-85
2021/07/21 02:25:40;;;;;;;12.53;11.30;;;17.60;97.30;;;;;;6185993;23;20410;-86
2021/07/21 02:28:07;;;;;;;12.50;11.23;;;17.60;97.40;;;;;;6192288;23;20448;-86
2021/07/21 02:30:35;;;;;;;13.93;12.30;;;17.60;97.70;;;;;;6186775;23;20940;-85
2021/07/21 02:33:08;;;;;;;12.73;10.80;;;17.60;98.10;;;;;;6185616;23;20401;-86
2021/07/21 02:35:35;;;;;;;13.50;11.43;;;17.60;98.10;;;;;;6185619;23;20494;-86
2021/07/21 02:38:03;;;;;;;12.93;11.63;;;17.50;98.50;;;;;;6187841;23;20705;-86
2021/07/21 02:40:30;;;;;;;13.40;11.17;;;17.50;98.80;;;;;;6205904;23;20430;-85
2021/07/21 02:42:57;;;;;;;13.20;11.47;;;17.40;99.20;;;;;;6209128;23;20873;-84
2021/07/21 02:45:24;;;;;;;12.17;10.97;;;17.50;99.50;;;;;;6206061;23;20405;-85
2021/07/21 02:47:51;;;;;;;19.67;13.30;;;17.30;99.70;;;;;;6197373;23;20472;-86
2021/07/21 02:50:21;;;;;;;14.73;13.23;;;17.20;99.80;;;;;;6188839;23;20429;-85
2021/07/21 02:52:54;;;;;;;14.00;11.53;;;17.20;99.90;;;;;;6187585;23;20408;-85
2021/07/21 02:55:25;;;;;;;12.37;11.03;;;17.20;99.90;;;;;;6189173;23;20392;-85
2021/07/21 02:57:58;;;;;;;14.00;12.50;;;17.20;99.90;;;;;;6194751;23;20387;-85
2021/07/21 03:00:28;;;;;;;13.90;11.00;;;17.20;99.90;;;;;;6210431;23;20430;-85
2021/07/21 03:02:56;;;;;;;14.00;11.63;;;17.20;99.90;;;;;;6210769;23;20402;-87
2021/07/21 03:05:28;;;;;;;16.07;12.27;;;17.10;99.90;;;;;;6189884;23;20471;-86
2021/07/21 03:07:58;;;;;;;15.10;10.97;;;17.10;99.90;;;;;;6209122;23;20441;-86
2021/07/21 03:10:25;;;;;;;13.27;11.37;;;17.10;99.90;;;;;;6207011;23;20481;-86
2021/07/21 03:13:02;;;;;;;15.07;13.53;;;17.00;99.90;;;;;;6188596;23;20419;-85
2021/07/21 03:15:32;;;;;;;13.30;11.23;;;17.00;99.90;;;;;;6187749;23;20440;-85
2021/07/21 03:18:01;;;;;;;13.30;11.70;;;17.00;99.90;;;;;;6188273;23;20853;-86
2021/07/21 03:20:30;;;;;;;15.13;13.07;;;17.00;99.90;;;;;;6189907;23;20426;-85
2021/07/21 03:23:00;;;;;;;12.03;10.30;;;17.00;99.90;;;;;;6187857;23;20429;-85
2021/07/21 03:25:28;;;;;;;13.13;11.00;;;17.00;99.90;;;;;;6188616;23;20399;-86
2021/07/21 03:27:56;;;;;;;14.77;11.90;;;16.90;99.90;;;;;;6188664;23;20446;-86
2021/07/21 03:30:24;;;;;;;14.50;11.00;;;16.90;99.90;;;;;;6186372;23;20441;-85
2021/07/21 03:32:52;;;;;;;14.37;12.87;;;16.90;99.90;;;;;;6186765;23;20406;-85
2021/07/21 03:35:23;;;;;;;13.27;10.77;;;16.90;99.90;;;;;;6187159;23;20457;-86
2021/07/21 03:37:51;;;;;;;11.70;10.50;;;16.90;99.90;;;;;;6189487;23;20394;-86
2021/07/21 03:40:20;;;;;;;15.33;11.33;;;16.90;99.90;;;;;;6187211;23;20421;-86
2021/07/21 03:42:47;;;;;;;13.30;11.23;;;16.90;99.90;;;;;;6187496;23;20960;-86
2021/07/21 03:45:15;;;;;;;13.93;11.80;;;16.90;99.90;;;;;;6187157;23;20401;-85
2021/07/21 03:47:43;;;;;;;13.67;11.27;;;16.90;99.90;;;;;;6208742;23;20432;-86
2021/07/21 03:50:11;;;;;;;12.60;11.30;;;16.90;99.90;;;;;;6213117;23;20437;-86
2021/07/21 03:52:40;;;;;;;14.00;12.27;;;16.90;99.90;;;;;;6211870;23;20477;-86
2021/07/21 03:55:11;;;;;;;12.87;11.60;;;16.90;99.90;;;;;;6211115;23;20394;-86
2021/07/21 03:57:38;;;;;;;15.10;12.73;;;16.80;99.90;;;;;;6191644;23;20390;-85
2021/07/21 04:00:08;;;;;;;13.00;11.27;;;16.90;99.90;;;;;;6190778;23;20773;-85
2021/07/21 04:02:36;;;;;;;15.77;11.67;;;16.80;99.90;;;;;;6191444;23;20416;-86
2021/07/21 04:05:05;;;;;;;14.83;12.27;;;16.80;99.90;;;;;;6191445;23;20413;-86
2021/07/21 04:07:36;;;;;;;13.30;11.53;;;16.80;99.90;;;;;;6189163;23;20414;-86
2021/07/21 04:10:06;;;;;;;12.87;11.57;;;16.80;99.90;;;;;;6188059;23;20433;-86
2021/07/21 04:12:35;;;;;;;13.80;10.13;;;16.70;99.90;;;;;;6185979;23;20868;-86
2021/07/21 04:15:03;;;;;;;15.53;12.23;;;16.70;99.90;;;;;;6185994;23;20468;-86
2021/07/21 04:17:30;;;;;;;15.60;12.17;;;16.80;99.90;;;;;;6186108;23;20408;-86
2021/07/21 04:19:58;;;;;;;13.27;11.80;;;16.80;99.90;;;;;;6189234;23;20801;-87
2021/07/21 04:22:25;;;;;;;15.00;12.57;;;16.80;99.90;;;;;;6191398;23;20416;-86
2021/07/21 04:24:52;;;;;;;14.23;11.77;;;16.90;99.90;;;;;;6203795;23;20410;-86
2021/07/21 04:27:20;;;;;;;14.47;12.77;;;16.80;99.90;;;;;;6206833;23;20407;-86
2021/07/21 04:29:50;;;;;;;14.50;12.20;;;16.80;99.90;;;;;;6193952;23;20446;-86
2021/07/21 04:32:18;;;;;;;12.50;11.10;;;16.80;99.90;;;;;;6188195;23;20402;-86
2021/07/21 04:34:46;;;;;;;14.37;12.13;;;16.80;99.90;;;;;;6191202;23;20422;-86
2021/07/21 04:37:14;;;;;;;13.23;11.70;;;16.80;99.90;;;;;;6196993;23;20790;-86
2021/07/21 04:39:42;;;;;;;18.33;13.03;;;16.80;99.90;;;;;;6187619;23;20425;-86
2021/07/21 04:42:12;;;;;;;20.27;14.63;;;16.80;99.90;;;;;;6187789;23;20420;-85
2021/07/21 04:44:41;;;;;;;18.03;13.60;;;16.80;99.90;;;;;;6191003;23;20388;-86
2021/07/21 04:47:09;;;;;;;19.10;13.40;;;16.80;99.90;;;;;;6211304;23;20391;-87
2021/07/21 04:49:39;;;;;;;19.33;13.50;;;16.80;99.90;;;;;;6190437;23;20450;-86
2021/07/21 04:52:08;;;;;;;14.57;12.37;;;16.90;99.90;;;;;;6193846;23;20390;-79
2021/07/21 04:54:35;;;;;;;16.20;13.07;;;16.90;99.90;;;;;;6189522;23;20406;-79
2021/07/21 04:57:02;;;;;;;13.07;11.77;;;17.00;99.90;;;;;;6188266;23;20401;-79
2021/07/21 04:59:28;;;;;;;13.80;12.30;;;17.00;99.90;;;;;;6189400;23;20422;-79
2021/07/21 05:01:55;;;;;;;15.03;12.10;;;17.00;99.90;;;;;;6192035;23;20406;-79
2021/07/21 05:04:23;;;;;;;13.30;11.90;;;17.10;99.90;;;;;;6188989;23;20410;-79
2021/07/21 05:06:50;;;;;;;13.50;12.10;;;17.10;99.90;;;;;;6189379;23;20476;-79
2021/07/21 05:09:16;;;;;;;14.27;12.03;;;17.20;99.90;;;;;;6188681;23;20456;-79
2021/07/21 05:11:44;;;;;;;15.67;12.23;;;17.20;99.90;;;;;;6189425;23;20394;-79
2021/07/21 05:14:10;;;;;;;15.20;12.30;;;17.30;99.90;;;;;;6186670;23;20468;-79
2021/07/21 05:16:37;;;;;;;16.60;13.20;;;17.30;99.90;;;;;;6185774;23;20409;-79
2021/07/21 05:19:04;;;;;;;14.00;12.07;;;17.50;99.90;;;;;;6187293;23;20915;-79
2021/07/21 05:21:32;;;;;;;16.37;12.47;;;17.90;99.90;;;;;;6186212;23;20429;-79
2021/07/21 05:23:59;;;;;;;15.87;14.27;;;18.40;99.90;;;;;;6188180;23;20920;-78
2021/07/21 05:26:26;;;;;;;15.37;12.00;;;18.80;99.90;;;;;;6186097;23;20423;-79
2021/07/21 05:28:53;;;;;;;17.07;12.73;;;19.30;99.80;;;;;;6188580;23;20781;-79
2021/07/21 05:31:19;;;;;;;15.63;13.03;;;19.80;97.90;;;;;;6187416;23;20447;-80
2021/07/21 05:33:46;;;;;;;12.83;11.53;;;20.30;96.70;;;;;;6188084;23;20814;-79
2021/07/21 05:36:13;;;;;;;12.43;11.17;;;20.70;95.50;;;;;;6187272;23;20410;-79
2021/07/21 05:38:41;;;;;;;13.03;11.73;;;21.20;94.60;;;;;;6187580;23;20443;-79
2021/07/21 05:41:10;;;;;;;12.20;10.90;;;21.60;92.60;;;;;;6188396;23;20422;-79
2021/07/21 05:43:36;;;;;;;12.40;11.20;;;21.70;92.40;;;;;;6187036;23;20407;-80
2021/07/21 05:46:03;;;;;;;14.20;11.23;;;22.10;91.80;;;;;;6189090;23;20397;-81
2021/07/21 05:48:31;;;;;;;11.03;9.97;;;22.50;90.50;;;;;;6188927;23;20389;-79
2021/07/21 05:50:58;;;;;;;12.70;11.40;;;22.80;89.00;;;;;;6188496;23;20440;-80
2021/07/21 05:53:24;;;;;;;11.50;10.30;;;23.10;88.00;;;;;;6193048;23;20404;-79
2021/07/21 05:55:53;;;;;;;13.13;10.83;;;23.40;86.00;;;;;;6189450;23;20459;-79
2021/07/21 05:58:19;;;;;;;13.50;11.17;;;23.80;85.20;;;;;;6188208;23;20409;-80
2021/07/21 06:00:46;;;;;;;13.83;12.37;;;24.20;82.60;;;;;;6187517;23;20433;-81
2021/07/21 06:03:15;;;;;;;12.43;11.23;;;24.40;81.10;;;;;;6188073;23;20597;-79
2021/07/21 06:05:41;;;;;;;12.30;10.93;;;24.60;79.80;;;;;;6195353;23;20405;-79
2021/07/21 06:08:08;;;;;;;12.23;10.93;;;24.50;79.30;;;;;;6194481;23;20433;-80
2021/07/21 06:10:36;;;;;;;11.90;10.77;;;24.70;79.00;;;;;;6203364;23;20428;-80
2021/07/21 06:13:04;;;;;;;12.40;11.20;;;24.90;77.90;;;;;;6197481;23;20397;-81
2021/07/21 06:15:31;;;;;;;12.10;10.90;;;25.40;76.70;;;;;;6191406;23;20402;-81
2021/07/21 06:17:58;;;;;;;12.47;11.23;;;25.70;74.70;;;;;;6190711;23;20412;-79
2021/07/21 06:20:25;;;;;;;11.70;10.60;;;25.80;73.60;;;;;;6188221;23;20476;-79
2021/07/21 06:22:51;;;;;;;12.43;11.13;;;25.90;72.50;;;;;;6188879;23;20407;-80
2021/07/21 06:25:18;;;;;;;14.73;11.33;;;26.20;72.30;;;;;;6189223;23;20415;-82
2021/07/21 06:27:45;;;;;;;11.20;10.17;;;26.50;71.30;;;;;;6188456;23;20409;-80
2021/07/21 06:30:14;;;;;;;11.63;10.40;;;26.90;69.70;;;;;;6190715;23;20481;-80
2021/07/21 06:32:42;;;;;;;12.10;10.00;;;27.00;68.30;;;;;;6190150;23;20409;-85
2021/07/21 06:35:10;;;;;;;12.70;9.77;;;27.50;66.60;;;;;;6204649;23;20381;-84
2021/07/21 06:37:38;;;;;;;11.93;10.60;;;27.20;66.40;;;;;;6211722;23;20402;-87
2021/07/21 06:40:09;;;;;;;11.57;10.60;;;27.50;66.10;;;;;;6212858;23;20430;-86
2021/07/21 06:42:36;;;;;;;11.70;10.63;;;27.70;64.70;;;;;;6207819;23;20418;-86
2021/07/21 06:45:05;;;;;;;10.80;9.63;;;28.40;63.70;;;;;;6197794;23;20502;-87
2021/07/21 06:47:37;;;;;;;12.17;11.03;;;28.60;61.10;;;;;;6191271;23;20418;-86
2021/07/21 06:50:08;;;;;;;11.20;10.10;;;28.70;59.80;;;;;;6201248;23;20422;-86
2021/07/21 06:52:36;;;;;;;11.93;10.77;;;29.30;58.90;;;;;;6210284;23;20416;-87
2021/07/21 06:55:04;;;;;;;12.33;11.23;;;29.50;58.10;;;;;;6201100;23;20417;-87
2021/07/21 06:57:32;;;;;;;12.50;11.30;;;29.40;58.10;;;;;;6189975;23;20924;-87
2021/07/21 07:00:02;;;;;;;11.17;10.17;;;29.70;58.00;;;;;;6188130;23;20951;-87
2021/07/21 07:02:29;;;;;;;11.60;10.37;;;30.00;57.90;;;;;;6197966;23;20391;-88
2021/07/21 07:05:02;;;;;;;11.67;10.57;;;30.60;56.00;;;;;;6192163;23;20417;-87
2021/07/21 07:07:29;;;;;;;11.73;10.60;;;30.80;55.40;;;;;;6188772;23;20414;-87
2021/07/21 07:09:57;;;;;;;11.10;10.00;;;30.70;54.90;;;;;;6188471;23;20433;-87
2021/07/21 07:12:25;;;;;;;12.23;11.13;;;30.60;54.90;;;;;;6187510;23;20410;-87
2021/07/21 07:14:52;;;;;;;13.80;11.60;;;30.70;54.80;;;;;;6187866;23;20414;-88
2021/07/21 07:17:20;;;;;;;11.97;10.37;;;30.80;54.30;;;;;;6188577;23;20421;-88
2021/07/21 07:19:48;;;;;;;11.17;10.17;;;30.90;54.20;;;;;;6187069;23;20449;-87
2021/07/21 07:22:21;;;;;;;11.20;10.30;;;31.00;54.10;;;;;;6186927;23;20415;-88
2021/07/21 07:24:50;;;;;;;12.50;11.40;;;31.20;53.60;;;;;;6192903;23;20895;-87
2021/07/21 07:27:17;;;;;;;12.90;11.33;;;31.60;53.00;;;;;;6188231;23;20410;-88
2021/07/21 07:29:45;;;;;;;13.17;11.87;;;31.20;53.30;;;;;;6187058;23;20551;-87
2021/07/21 07:32:13;;;;;;;12.13;11.03;;;31.60;52.90;;;;;;6187348;23;20414;-87
2021/07/21 07:34:42;;;;;;;12.00;10.80;;;32.20;52.50;;;;;;6186485;23;20413;-87
2021/07/21 07:37:10;;;;;;;11.97;10.80;;;32.20;51.80;;;;;;6188399;23;20414;-87
2021/07/21 07:39:43;;;;;;;10.97;9.90;;;32.60;51.30;;;;;;6188017;23;20473;-87
2021/07/21 07:42:11;;;;;;;11.33;10.33;;;32.80;50.10;;;;;;6191229;23;20424;-88
2021/07/21 08:31:41;;;;;;;10.87;10.00;;;36.40;42.70;;;;;;6132489;23;20448;-92
2021/07/21 08:36:52;;;;;;;11.50;10.40;;;36.90;41.80;;;;;;6124290;23;20438;-91
2021/07/21 08:41:56;;;;;;;11.60;9.70;;;37.90;40.50;;;;;;6169578;23;20463;-91
2021/07/21 08:44:25;;;;;;;11.33;10.20;;;38.30;39.80;;;;;;6206521;23;20457;-92
2021/07/21 08:46:54;;;;;;;10.57;9.57;;;38.00;39.70;;;;;;6193804;23;20420;-93
2021/07/21 08:49:21;;;;;;;11.00;9.90;;;38.70;39.80;;;;;;6191580;23;20468;-92
2021/07/21 08:51:48;;;;;;;11.17;10.27;;;38.20;38.80;;;;;;6192519;23;20469;-92
2021/07/21 08:54:18;;;;;;;11.77;10.73;;;36.80;40.50;;;;;;6208817;23;20446;-93
2021/07/21 08:56:46;;;;;;;10.97;9.97;;;36.10;41.80;;;;;;6197421;23;20406;-92
2021/07/21 09:07:38;;;;;;;9.40;8.57;;;35.60;42.20;;;;;;6189732;23;20419;-92
2021/07/21 09:13:07;;;;;;;11.70;10.70;;;36.60;41.00;;;;;;6192443;23;20402;-93
2021/07/21 10:42:23;;;;;;;10.27;9.33;;;43.80;28.90;;;;;;6112500;23;20441;-94
2021/07/21 10:44:57;;;;;;;8.47;7.87;;;44.20;28.90;;;;;;6193491;23;20708;-90
2021/07/21 10:47:25;;;;;;;9.00;8.40;;;44.20;28.90;;;;;;6191186;23;20410;-90
2021/07/21 10:49:56;;;;;;;10.00;9.30;;;44.50;28.10;;;;;;6195715;23;20472;-91
2021/07/21 10:55:23;;;;;;;9.80;9.00;;;44.50;28.20;;;;;;6190951;23;20445;-91
2021/07/21 11:00:56;;;;;;;11.07;10.10;;;44.20;28.70;;;;;;6193151;23;20703;-91
2021/07/21 11:03:24;;;;;;;10.47;9.57;;;44.20;28.40;;;;;;6192858;23;20441;-91
2021/07/21 11:06:07;;;;;;;11.90;10.90;;;44.30;28.30;;;;;;6191917;23;20412;-91
2021/07/21 11:08:46;;;;;;;10.50;9.40;;;44.90;27.80;;;;;;6194187;23;20398;-91
2021/07/21 11:11:21;;;;;;;10.40;9.57;;;43.50;28.10;;;;;;6196822;23;20507;-91
2021/07/21 11:14:00;;;;;;;9.37;8.67;;;43.00;29.00;;;;;;6194818;23;20527;-91
2021/07/21 11:16:48;;;;;;;10.43;9.63;;;42.80;29.10;;;;;;6196281;23;20410;-90
2021/07/21 11:22:39;;;;;;;11.40;10.20;;;42.70;29.60;;;;;;6196381;23;20413;-91
2021/07/21 11:25:48;;;;;;;10.77;9.97;;;44.20;28.60;;;;;;6202931;23;20405;-91
2021/07/21 11:32:16;;;;;;;11.23;10.33;;;45.50;26.80;;;;;;6207894;23;20457;-91
2021/07/21 11:34:43;;;;;;;11.37;10.57;;;44.10;27.90;;;;;;6198408;23;20480;-91
2021/07/21 11:37:17;;;;;;;11.03;10.23;;;44.70;27.20;;;;;;6197769;23;20410;-92
2021/07/21 11:39:47;;;;;;;10.17;9.27;;;44.40;27.40;;;;;;6194428;23;20461;-92
2021/07/21 11:45:21;;;;;;;12.50;11.40;;;42.30;28.30;;;;;;6192199;23;20418;-92
2021/07/21 11:48:07;;;;;;;12.10;11.20;;;40.30;30.70;;;;;;6200005;23;20398;-93
2021/07/21 11:50:44;;;;;;;11.27;10.47;;;40.80;30.60;;;;;;6201378;23;20460;-92
2021/07/21 11:53:16;;;;;;;10.73;9.63;;;41.70;30.50;;;;;;6199350;23;20417;-93
2021/07/21 11:55:54;;;;;;;11.03;10.03;;;41.60;30.00;;;;;;6195141;23;20450;-93
2021/07/21 11:58:31;;;;;;;10.70;9.77;;;42.50;30.10;;;;;;6198951;23;20394;-92
2021/07/21 12:00:58;;;;;;;11.70;10.90;;;42.40;30.00;;;;;;6197664;23;20472;-93
2021/07/21 12:06:53;;;;;;;10.87;9.97;;;43.40;29.20;;;;;;6205039;23;20402;-92
2021/07/21 12:09:29;;;;;;;11.00;10.00;;;43.20;29.00;;;;;;6208107;23;20413;-90
2021/07/21 12:12:07;;;;;;;11.87;10.80;;;40.60;30.90;;;;;;6204865;23;20473;-92
2021/07/21 12:17:34;;;;;;;12.13;10.90;;;38.80;33.60;;;;;;6211412;23;20406;-92
2021/07/21 12:20:37;;;;;;;12.07;11.17;;;40.70;32.50;;;;;;6213704;23;20422;-92
2021/07/21 12:23:10;;;;;;;11.67;10.77;;;42.00;31.10;;;;;;6213433;23;20416;-92
2021/07/21 12:25:39;;;;;;;11.23;10.20;;;42.00;30.00;;;;;;6210308;23;20438;-92
2021/07/21 12:28:17;;;;;;;12.20;11.30;;;42.20;29.90;;;;;;6212624;23;20398;-91
2021/07/21 12:31:09;;;;;;;10.50;9.60;;;42.00;31.40;;;;;;6213516;23;20429;-93
2021/07/21 12:34:11;;;;;;;11.67;10.77;;;42.10;30.50;;;;;;6211718;23;20417;-93
2021/07/21 12:43:16;;;;;;;11.50;10.40;;;41.60;30.70;;;;;;6203102;23;20393;-93
2021/07/21 12:46:05;;;;;;;10.93;9.90;;;41.70;30.20;;;;;;6212335;23;20416;-93
2021/07/21 12:49:07;;;;;;;11.10;10.20;;;42.40;30.10;;;;;;6210552;23;20425;-93
2021/07/21 12:51:47;;;;;;;11.47;10.57;;;41.70;30.30;;;;;;6199975;23;20476;-92
2021/07/21 12:54:35;;;;;;;12.30;11.30;;;41.50;30.80;;;;;;6203577;23;20948;-90
2021/07/21 12:58:06;;;;;;;12.03;10.77;;;41.80;30.90;;;;;;6206629;23;20404;-92
2021/07/21 13:00:58;;;;;;;9.70;8.90;;;41.20;30.60;;;;;;6183037;23;20425;-92
2021/07/21 13:04:00;;;;;;;12.13;11.17;;;41.20;31.60;;;;;;6198332;23;20580;-93
2021/07/21 13:06:39;;;;;;;11.60;10.60;;;42.00;30.90;;;;;;6197384;23;20385;-93
2021/07/21 13:09:12;;;;;;;11.23;10.33;;;42.50;29.40;;;;;;6195356;23;20413;-91
2021/07/21 13:11:59;;;;;;;10.77;9.87;;;43.40;28.90;;;;;;6197158;23;20438;-92
2021/07/21 13:14:40;;;;;;;11.43;10.57;;;41.40;30.00;;;;;;6200961;23;20430;-92
2021/07/21 13:17:38;;;;;;;12.00;11.00;;;41.40;30.40;;;;;;6199067;23;20393;-94
2021/07/21 13:23:46;;;;;;;12.07;11.07;;;41.20;30.90;;;;;;6194235;23;20402;-94
2021/07/21 13:26:29;;;;;;;10.50;9.70;;;38.50;33.10;;;;;;6131801;23;20453;-92
2021/07/21 13:29:21;;;;;;;11.30;10.30;;;37.40;35.60;;;;;;6190539;23;20871;-92
2021/07/21 13:32:12;;;;;;;12.00;10.80;;;37.90;34.90;;;;;;6193956;23;20473;-91
2021/07/21 13:38:14;;;;;;;;;;;;;;;;;;;;;
2021/07/21 13:40:48;;;;;;;12.17;11.00;;;39.40;32.20;;;;;;6199432;23;20826;-93
2021/07/21 13:43:17;;;;;;;12.10;11.10;;;39.30;32.20;;;;;;6199102;23;20430;-91
2021/07/21 13:46:25;;;;;;;12.90;10.23;;;40.10;32.10;;;;;;6192565;23;20413;-92
2021/07/21 13:52:39;;;;;;;11.30;10.40;;;40.00;31.30;;;;;;6211607;23;20481;-93
2021/07/21 14:01:22;;;;;;;11.10;10.30;;;40.50;31.50;;;;;;6175369;23;20442;-92
2021/07/21 14:03:50;;;;;;;12.47;11.37;;;39.90;31.50;;;;;;6210899;23;20437;-92
2021/07/21 14:06:41;;;;;;;9.87;8.97;;;39.60;32.40;;;;;;6205132;23;20425;-92
2021/07/21 14:09:38;;;;;;;11.07;10.17;;;39.70;32.10;;;;;;6201988;23;20432;-93
2021/07/21 14:12:18;;;;;;;10.83;9.83;;;39.60;31.30;;;;;;6197864;23;20828;-93
2021/07/21 14:15:04;;;;;;;11.13;10.20;;;39.50;31.30;;;;;;6202968;23;20445;-93
2021/07/21 14:17:41;;;;;;;11.23;10.13;;;39.50;31.20;;;;;;6211719;23;20394;-93
2021/07/21 14:20:27;;;;;;;;;;;;;;;;;;;;;
2021/07/21 14:23:28;;;;;;;10.13;9.33;;;39.30;31.50;;;;;;6200168;23;20393;-93
2021/07/21 14:25:56;;;;;;;10.80;9.90;;;38.80;32.50;;;;;;6193084;23;20461;-93
2021/07/21 14:28:24;;;;;;;11.30;10.30;;;38.60;31.90;;;;;;6194615;23;20608;-92
2021/07/21 14:31:10;;;;;;;10.53;9.53;;;38.20;32.80;;;;;;6193949;23;20442;-91
2021/07/21 14:33:57;;;;;;;16.30;9.90;;;38.10;33.00;;;;;;6179689;23;20436;-92
2021/07/21 14:36:36;;;;;;;11.67;10.57;;;38.20;33.40;;;;;;6195561;23;20409;-92
2021/07/21 14:39:28;;;;;;;10.80;9.90;;;38.20;32.90;;;;;;6197214;23;20436;-92
2021/07/21 14:42:14;;;;;;;11.40;10.43;;;37.40;33.80;;;;;;6153624;23;20421;-91
2021/07/21 14:44:44;;;;;;;11.67;10.57;;;36.70;34.20;;;;;;6194061;23;20430;-90
2021/07/21 14:47:23;;;;;;;12.77;11.60;;;35.70;35.60;;;;;;6195622;23;20410;-90
2021/07/21 14:50:17;;;;;;;10.97;10.07;;;35.20;36.60;;;;;;6193869;23;20481;-91
2021/07/21 14:53:27;;;;;;;11.13;10.23;;;33.60;38.00;;;;;;6182915;23;20405;-91
2021/07/21 14:59:03;;;;;;;10.90;10.00;;;31.90;41.10;;;;;;6197068;23;20793;-90
2021/07/21 15:01:39;;;;;;;11.20;10.13;;;31.40;42.00;;;;;;6207886;23;20405;-91
2021/07/21 15:04:19;;;;;;;11.60;10.50;;;31.00;42.90;;;;;;6199362;23;20457;-91
2021/07/21 15:07:02;;;;;;;10.90;9.87;;;30.80;43.00;;;;;;6207572;23;20386;-91
2021/07/21 15:09:29;;;;;;;11.70;10.37;;;30.60;43.50;;;;;;6213067;23;20371;-93
2021/07/21 15:11:58;;;;;;;9.80;8.33;;;30.50;43.10;;;;;;6210814;23;20433;-92
2021/07/21 15:14:26;;;;;;;12.53;11.13;;;30.20;42.40;;;;;;6210226;23;20441;-92
2021/07/21 15:17:14;;;;;;;11.23;10.23;;;30.00;43.40;;;;;;6200616;23;20405;-92
2021/07/21 15:19:45;;;;;;;11.10;9.43;;;29.80;43.70;;;;;;6199767;23;20465;-91
2021/07/21 15:22:36;;;;;;;10.43;9.43;;;29.60;45.10;;;;;;6211628;23;20440;-92
2021/07/21 15:25:04;;;;;;;16.13;10.87;;;29.50;45.60;;;;;;6197106;23;20399;-92
2021/07/21 15:27:38;;;;;;;11.27;10.23;;;29.40;45.40;;;;;;6209374;23;20402;-92
2021/07/21 15:30:31;;;;;;;12.00;10.57;;;29.20;45.80;;;;;;6209685;23;20388;-94
2021/07/21 15:33:05;;;;;;;10.57;9.67;;;29.10;46.20;;;;;;6208320;23;20457;-93
2021/07/21 15:35:55;;;;;;;10.67;9.77;;;29.10;46.30;;;;;;6200561;23;20430;-90
2021/07/21 15:38:32;;;;;;;10.37;9.37;;;29.10;45.90;;;;;;6209923;23;20397;-93
2021/07/21 15:41:22;;;;;;;10.20;9.27;;;29.00;46.30;;;;;;6199517;23;20830;-93
2021/07/21 15:44:00;;;;;;;11.33;10.10;;;29.10;46.30;;;;;;6201707;23;20449;-94
2021/07/21 15:46:42;;;;;;;10.37;9.23;;;29.00;46.20;;;;;;6202165;23;20414;-93
2021/07/21 15:49:40;;;;;;;9.40;8.60;;;29.00;46.20;;;;;;6200994;23;20437;-94
2021/07/21 15:52:56;;;;;;;9.57;8.67;;;29.00;45.60;;;;;;6200181;23;20488;-93
2021/07/21 15:58:40;;;;;;;8.83;7.93;;;28.80;45.30;;;;;;6207858;23;20473;-93
2021/07/21 16:04:16;;;;;;;8.33;7.63;;;28.70;45.80;;;;;;6187767;23;20431;-93
2021/07/21 16:06:57;;;;;;;10.27;9.17;;;28.70;43.50;;;;;;6204066;23;20410;-93
2021/07/21 16:09:47;;;;;;;9.80;8.80;;;28.70;44.90;;;;;;6204581;23;20432;-93
2021/07/21 16:12:44;;;;;;;9.63;8.67;;;28.80;43.50;;;;;;6196784;23;20444;-93
2021/07/21 16:18:37;;;;;;;10.10;9.10;;;28.70;43.70;;;;;;6195972;23;20964;-93
2021/07/21 16:24:05;;;;;;;8.70;7.90;;;28.50;42.80;;;;;;6198269;23;20449;-93
2021/07/21 16:27:01;;;;;;;8.67;7.77;;;28.50;43.70;;;;;;6212058;23;20396;-92
2021/07/21 16:29:35;;;;;;;10.00;7.97;;;28.40;44.50;;;;;;6211907;23;20429;-92
2021/07/21 16:35:57;;;;;;;;;;;;;;;;;;;;;
2021/07/21 16:38:37;;;;;;;7.97;7.27;;;28.30;45.20;;;;;;6211268;23;20473;-93
2021/07/21 16:41:46;;;;;;;8.37;7.57;;;28.20;45.30;;;;;;6207449;23;20477;-92